sensor_id;sensor_type;location;lat;lon;timestamp;pressure;altitude;pressure_sealevel;temperature;humidity
19210;BME280;9738;51.654;14.238;2022-12-18T00:01:37;102155.69;;;-4.19;100.00
19210;BME280;9738;51.654;14.238;2022-12-18T00:04:05;102164.31;;;-4.14;100.00
19210;BME280;9738;51.654;14.238;2022-12-18T00:06:32;102167.06;;;-4.26;100.00
19210;BME280;9738;51.654;14.238;2022-12-18T00:08:59;102170.59;;;-4.33;100.00
19210;BME280;9738;51.654;14.238;2022-12-18T00:11:27;102172.41;;;-4.39;100.00
19210;BME280;9738;51.654;14.238;2022-12-18T00:13:55;102176.66;;;-4.30;100.00
19210;BME280;9738;51.654;14.238;2022-12-18T00:16:23;102174.00;;;-4.27;100.00
19210;BME280;9738;51.654;14.238;2022-12-18T00:18:52;102165.31;;;-4.27;100.00
19210;BME280;9738;51.654;14.238;2022-12-18T00:21:19;102174.84;;;-4.22;100.00
19210;BME280;9738;51.654;14.238;2022-12-18T00:23:46;102176.66;;;-4.28;100.00
19210;BME280;9738;51.654;14.238;2022-12-18T00:26:15;102177.47;;;-4.23;100.00
19210;BME280;9738;51.654;14.238;2022-12-18T00:28:42;102175.75;;;-4.24;100.00
19210;BME280;9738;51.654;14.238;2022-12-18T00:31:11;102178.25;;;-4.15;100.00
19210;BME280;9738;51.654;14.238;2022-12-18T00:33:37;102174.72;;;-4.10;100.00
19210;BME280;9738;51.654;14.238;2022-12-18T00:36:20;102172.97;;;-4.09;100.00
19210;BME280;9738;51.654;14.238;2022-12-18T00:38:48;102169.53;;;-4.14;100.00
19210;BME280;9738;51.654;14.238;2022-12-18T00:41:16;102173.22;;;-4.33;100.00
19210;BME280;9738;51.654;14.238;2022-12-18T00:44:04;102177.72;;;-4.51;100.00
19210;BME280;9738;51.654;14.238;2022-12-18T00:46:30;102178.63;;;-4.55;100.00
19210;BME280;9738;51.654;14.238;2022-12-18T00:48:56;102174.34;;;-4.65;100.00
19210;BME280;9738;51.654;14.238;2022-12-18T00:51:24;102178.72;;;-4.64;100.00
19210;BME280;9738;51.654;14.238;2022-12-18T00:53:50;102168.31;;;-4.69;100.00
19210;BME280;9738;51.654;14.238;2022-12-18T00:56:15;102176.16;;;-4.73;100.00
19210;BME280;9738;51.654;14.238;2022-12-18T00:58:42;102180.53;;;-4.75;100.00
19210;BME280;9738;51.654;14.238;2022-12-18T01:01:07;102172.72;;;-4.78;100.00
19210;BME280;9738;51.654;14.238;2022-12-18T01:03:34;102171.00;;;-4.79;100.00
19210;BME280;9738;51.654;14.238;2022-12-18T01:06:09;102171.94;;;-4.88;100.00
19210;BME280;9738;51.654;14.238;2022-12-18T01:08:35;102176.28;;;-4.90;100.00
19210;BME280;9738;51.654;14.238;2022-12-18T01:11:14;102176.28;;;-4.92;100.00
19210;BME280;9738;51.654;14.238;2022-12-18T01:13:40;102184.19;;;-5.04;100.00
19210;BME280;9738;51.654;14.238;2022-12-18T01:16:07;102183.34;;;-5.06;100.00
19210;BME280;9738;51.654;14.238;2022-12-18T01:18:35;102173.78;;;-5.05;100.00
19210;BME280;9738;51.654;14.238;2022-12-18T01:21:00;102180.72;;;-5.04;100.00
19210;BME280;9738;51.654;14.238;2022-12-18T01:23:31;102172.94;;;-5.07;100.00
19210;BME280;9738;51.654;14.238;2022-12-18T01:25:56;102176.38;;;-5.01;100.00
19210;BME280;9738;51.654;14.238;2022-12-18T01:28:23;102180.78;;;-5.09;100.00
19210;BME280;9738;51.654;14.238;2022-12-18T01:30:49;102181.59;;;-5.05;100.00
19210;BME280;9738;51.654;14.238;2022-12-18T01:33:15;102188.44;;;-4.89;100.00
19210;BME280;9738;51.654;14.238;2022-12-18T01:35:42;102192.69;;;-4.77;100.00
19210;BME280;9738;51.654;14.238;2022-12-18T01:38:09;102197.91;;;-4.79;100.00
19210;BME280;9738;51.654;14.238;2022-12-18T01:40:35;102197.84;;;-4.67;100.00
19210;BME280;9738;51.654;14.238;2022-12-18T01:43:01;102198.63;;;-4.55;100.00
19210;BME280;9738;51.654;14.238;2022-12-18T01:45:30;102193.53;;;-4.72;100.00
19210;BME280;9738;51.654;14.238;2022-12-18T01:47:59;102192.75;;;-4.83;100.00
19210;BME280;9738;51.654;14.238;2022-12-18T01:50:47;102201.50;;;-4.97;100.00
19210;BME280;9738;51.654;14.238;2022-12-18T01:53:19;102205.00;;;-4.95;100.00
19210;BME280;9738;51.654;14.238;2022-12-18T01:55:53;102207.53;;;-4.87;100.00
19210;BME280;9738;51.654;14.238;2022-12-18T01:58:48;102203.19;;;-4.83;100.00
19210;BME280;9738;51.654;14.238;2022-12-18T02:01:11;102207.47;;;-4.75;100.00
19210;BME280;9738;51.654;14.238;2022-12-18T02:03:41;102207.41;;;-4.69;100.00
19210;BME280;9738;51.654;14.238;2022-12-18T02:06:12;102210.00;;;-4.67;100.00
19210;BME280;9738;51.654;14.238;2022-12-18T02:09:01;102219.53;;;-4.65;100.00
19210;BME280;9738;51.654;14.238;2022-12-18T02:17:00;102210.91;;;-4.73;100.00
19210;BME280;9738;51.654;14.238;2022-12-18T02:22:24;102213.50;;;-4.71;100.00
19210;BME280;9738;51.654;14.238;2022-12-18T02:27:49;102216.94;;;-4.63;100.00
19210;BME280;9738;51.654;14.238;2022-12-18T02:30:17;102224.03;;;-4.83;100.00
19210;BME280;9738;51.654;14.238;2022-12-18T02:32:49;102222.38;;;-5.00;100.00
19210;BME280;9738;51.654;14.238;2022-12-18T02:35:21;102231.88;;;-4.93;100.00
19210;BME280;9738;51.654;14.238;2022-12-18T02:37:48;102231.03;;;-4.95;100.00
19210;BME280;9738;51.654;14.238;2022-12-18T02:40:15;102220.56;;;-4.90;100.00
19210;BME280;9738;51.654;14.238;2022-12-18T02:42:43;102222.28;;;-4.86;100.00
19210;BME280;9738;51.654;14.238;2022-12-18T02:45:09;102227.44;;;-4.78;100.00
19210;BME280;9738;51.654;14.238;2022-12-18T02:47:38;102224.84;;;-4.78;100.00
19210;BME280;9738;51.654;14.238;2022-12-18T02:58:28;102228.34;;;-4.76;100.00
19210;BME280;9738;51.654;14.238;2022-12-18T03:01:19;102227.47;;;-4.77;100.00
19210;BME280;9738;51.654;14.238;2022-12-18T03:04:12;102223.06;;;-4.69;100.00
19210;BME280;9738;51.654;14.238;2022-12-18T03:06:48;102231.75;;;-4.71;100.00
19210;BME280;9738;51.654;14.238;2022-12-18T03:09:18;102230.00;;;-4.69;100.00
19210;BME280;9738;51.654;14.238;2022-12-18T03:11:49;102231.72;;;-4.67;100.00
19210;BME280;9738;51.654;14.238;2022-12-18T03:14:37;102236.94;;;-4.67;100.00
19210;BME280;9738;51.654;14.238;2022-12-18T03:17:08;102236.09;;;-4.70;100.00
19210;BME280;9738;51.654;14.238;2022-12-18T03:19:37;102237.81;;;-4.68;100.00
19210;BME280;9738;51.654;14.238;2022-12-18T03:22:06;102237.84;;;-4.72;100.00
19210;BME280;9738;51.654;14.238;2022-12-18T03:24:33;102237.84;;;-4.74;100.00
19210;BME280;9738;51.654;14.238;2022-12-18T03:27:06;102231.69;;;-4.65;100.00
19210;BME280;9738;51.654;14.238;2022-12-18T03:32:05;102231.75;;;-4.68;100.00
19210;BME280;9738;51.654;14.238;2022-12-18T03:34:37;102233.44;;;-4.63;100.00
19210;BME280;9738;51.654;14.238;2022-12-18T03:37:04;102233.44;;;-4.63;100.00
19210;BME280;9738;51.654;14.238;2022-12-18T03:39:31;102226.50;;;-4.64;100.00
19210;BME280;9738;51.654;14.238;2022-12-18T03:44:55;102226.59;;;-4.80;100.00
19210;BME280;9738;51.654;14.238;2022-12-18T03:53:09;102233.50;;;-4.73;100.00
19210;BME280;9738;51.654;14.238;2022-12-18T03:55:40;102236.97;;;-4.68;100.00
19210;BME280;9738;51.654;14.238;2022-12-18T03:58:08;102233.44;;;-4.61;100.00
19210;BME280;9738;51.654;14.238;2022-12-18T04:00:37;102233.41;;;-4.58;100.00
19210;BME280;9738;51.654;14.238;2022-12-18T04:03:04;102234.31;;;-4.62;100.00
19210;BME280;9738;51.654;14.238;2022-12-18T04:05:33;102245.59;;;-4.65;100.00
19210;BME280;9738;51.654;14.238;2022-12-18T04:08:01;102248.31;;;-4.77;100.00
19210;BME280;9738;51.654;14.238;2022-12-18T04:10:28;102255.19;;;-4.67;100.00
19210;BME280;9738;51.654;14.238;2022-12-18T04:12:57;102261.22;;;-4.60;100.00
19210;BME280;9738;51.654;14.238;2022-12-18T04:15:24;102263.75;;;-4.49;100.00
19210;BME280;9738;51.654;14.238;2022-12-18T04:17:50;102257.59;;;-4.38;100.00
19210;BME280;9738;51.654;14.238;2022-12-18T04:20:16;102259.28;;;-4.33;100.00
19210;BME280;9738;51.654;14.238;2022-12-18T04:22:43;102256.75;;;-4.41;100.00
19210;BME280;9738;51.654;14.238;2022-12-18T04:25:09;102251.53;;;-4.41;100.00
19210;BME280;9738;51.654;14.238;2022-12-18T04:27:34;102264.59;;;-4.46;100.00
19210;BME280;9738;51.654;14.238;2022-12-18T04:30:01;102261.06;;;-4.40;100.00
19210;BME280;9738;51.654;14.238;2022-12-18T04:32:27;102248.88;;;-4.32;100.00
19210;BME280;9738;51.654;14.238;2022-12-18T04:34:53;102264.50;;;-4.30;100.00
19210;BME280;9738;51.654;14.238;2022-12-18T04:37:19;102268.00;;;-4.35;100.00
19210;BME280;9738;51.654;14.238;2022-12-18T04:39:45;102274.03;;;-4.29;100.00
19210;BME280;9738;51.654;14.238;2022-12-18T04:42:11;102273.25;;;-4.38;100.00
19210;BME280;9738;51.654;14.238;2022-12-18T04:44:37;102274.09;;;-4.36;100.00
19210;BME280;9738;51.654;14.238;2022-12-18T04:47:03;102273.22;;;-4.39;100.00
19210;BME280;9738;51.654;14.238;2022-12-18T04:49:29;102282.06;;;-4.58;100.00
19210;BME280;9738;51.654;14.238;2022-12-18T04:51:55;102275.97;;;-4.59;100.00
19210;BME280;9738;51.654;14.238;2022-12-18T04:54:21;102279.41;;;-4.48;100.00
19210;BME280;9738;51.654;14.238;2022-12-18T04:56:46;102270.75;;;-4.56;100.00
19210;BME280;9738;51.654;14.238;2022-12-18T04:59:13;102271.63;;;-4.55;100.00
19210;BME280;9738;51.654;14.238;2022-12-18T05:01:39;102269.91;;;-4.56;100.00
19210;BME280;9738;51.654;14.238;2022-12-18T05:04:04;102266.50;;;-4.68;100.00
19210;BME280;9738;51.654;14.238;2022-12-18T05:06:31;102265.59;;;-4.64;100.00
19210;BME280;9738;51.654;14.238;2022-12-18T05:08:57;102273.41;;;-4.62;100.00
19210;BME280;9738;51.654;14.238;2022-12-18T05:11:22;102278.53;;;-4.50;100.00
19210;BME280;9738;51.654;14.238;2022-12-18T05:13:49;102286.34;;;-4.45;100.00
19210;BME280;9738;51.654;14.238;2022-12-18T05:16:15;102291.53;;;-4.44;100.00
19210;BME280;9738;51.654;14.238;2022-12-18T05:18:41;102286.25;;;-4.35;100.00
19210;BME280;9738;51.654;14.238;2022-12-18T05:21:07;102283.75;;;-4.50;100.00
19210;BME280;9738;51.654;14.238;2022-12-18T05:23:35;102286.47;;;-4.68;100.00
19210;BME280;9738;51.654;14.238;2022-12-18T05:26:04;102283.94;;;-4.80;100.00
19210;BME280;9738;51.654;14.238;2022-12-18T05:28:32;102287.47;;;-4.87;100.00
19210;BME280;9738;51.654;14.238;2022-12-18T05:30:59;102284.81;;;-4.84;100.00
19210;BME280;9738;51.654;14.238;2022-12-18T05:33:27;102286.53;;;-4.77;100.00
19210;BME280;9738;51.654;14.238;2022-12-18T05:35:57;102287.44;;;-4.84;100.00
19210;BME280;9738;51.654;14.238;2022-12-18T05:38:24;102285.75;;;-4.98;100.00
19210;BME280;9738;51.654;14.238;2022-12-18T05:40:51;102297.09;;;-5.02;100.00
19210;BME280;9738;51.654;14.238;2022-12-18T05:43:18;102300.53;;;-4.97;100.00
19210;BME280;9738;51.654;14.238;2022-12-18T05:45:45;102300.47;;;-4.83;100.00
19210;BME280;9738;51.654;14.238;2022-12-18T05:48:12;102308.19;;;-4.66;100.00
19210;BME280;9738;51.654;14.238;2022-12-18T05:50:41;102315.94;;;-4.52;100.00
19210;BME280;9738;51.654;14.238;2022-12-18T05:53:07;102317.69;;;-4.54;100.00
19210;BME280;9738;51.654;14.238;2022-12-18T05:55:34;102315.91;;;-4.48;100.00
19210;BME280;9738;51.654;14.238;2022-12-18T05:58:02;102316.81;;;-4.53;100.00
19210;BME280;9738;51.654;14.238;2022-12-18T06:00:29;102322.06;;;-4.58;100.00
19210;BME280;9738;51.654;14.238;2022-12-18T06:02:55;102321.16;;;-4.54;100.00
19210;BME280;9738;51.654;14.238;2022-12-18T06:05:21;102316.81;;;-4.53;100.00
19210;BME280;9738;51.654;14.238;2022-12-18T06:07:47;102321.19;;;-4.60;100.00
19210;BME280;9738;51.654;14.238;2022-12-18T06:10:13;102328.16;;;-4.62;100.00
19210;BME280;9738;51.654;14.238;2022-12-18T06:12:39;102318.59;;;-4.62;100.00
19210;BME280;9738;51.654;14.238;2022-12-18T06:15:05;102333.38;;;-4.65;100.00
19210;BME280;9738;51.654;14.238;2022-12-18T06:17:34;102347.44;;;-4.97;100.00
19210;BME280;9738;51.654;14.238;2022-12-18T06:20:00;102349.28;;;-5.26;100.00
19210;BME280;9738;51.654;14.238;2022-12-18T06:22:27;102349.28;;;-5.41;100.00
19210;BME280;9738;51.654;14.238;2022-12-18T06:24:53;102354.53;;;-5.45;100.00
19210;BME280;9738;51.654;14.238;2022-12-18T06:27:19;102348.41;;;-5.27;100.00
19210;BME280;9738;51.654;14.238;2022-12-18T06:29:45;102344.88;;;-5.10;100.00
19210;BME280;9738;51.654;14.238;2022-12-18T06:32:11;102346.59;;;-5.00;100.00
19210;BME280;9738;51.654;14.238;2022-12-18T06:34:37;102357.88;;;-5.03;100.00
19210;BME280;9738;51.654;14.238;2022-12-18T06:37:03;102353.56;;;-5.10;100.00
19210;BME280;9738;51.654;14.238;2022-12-18T06:39:29;102355.31;;;-5.12;100.00
19210;BME280;9738;51.654;14.238;2022-12-18T06:41:56;102355.38;;;-5.27;100.00
19210;BME280;9738;51.654;14.238;2022-12-18T06:44:22;102355.31;;;-5.23;100.00
19210;BME280;9738;51.654;14.238;2022-12-18T06:46:48;102359.66;;;-5.17;100.00
19210;BME280;9738;51.654;14.238;2022-12-18T06:49:15;102364.03;;;-5.30;100.00
19210;BME280;9738;51.654;14.238;2022-12-18T06:51:41;102371.81;;;-5.11;100.00
19210;BME280;9738;51.654;14.238;2022-12-18T06:54:07;102366.56;;;-4.99;100.00
19210;BME280;9738;51.654;14.238;2022-12-18T06:56:34;102370.88;;;-4.97;100.00
19210;BME280;9738;51.654;14.238;2022-12-18T06:59:00;102381.28;;;-4.89;100.00
19210;BME280;9738;51.654;14.238;2022-12-18T07:01:26;102390.91;;;-5.08;100.00
19210;BME280;9738;51.654;14.238;2022-12-18T07:03:54;102392.66;;;-5.16;100.00
19210;BME280;9738;51.654;14.238;2022-12-18T07:06:21;102396.09;;;-5.05;100.00
19210;BME280;9738;51.654;14.238;2022-12-18T07:08:48;102392.63;;;-4.96;100.00
19210;BME280;9738;51.654;14.238;2022-12-18T07:11:16;102389.16;;;-5.00;100.00
19210;BME280;9738;51.654;14.238;2022-12-18T07:13:42;102394.31;;;-4.91;100.00
19210;BME280;9738;51.654;14.238;2022-12-18T07:16:11;102405.63;;;-4.93;100.00
19210;BME280;9738;51.654;14.238;2022-12-18T07:18:37;102396.06;;;-4.93;100.00
19210;BME280;9738;51.654;14.238;2022-12-18T07:21:05;102396.03;;;-4.86;100.00
19210;BME280;9738;51.654;14.238;2022-12-18T07:23:33;102394.28;;;-4.78;100.00
19210;BME280;9738;51.654;14.238;2022-12-18T07:26:03;102404.78;;;-4.95;100.00
19210;BME280;9738;51.654;14.238;2022-12-18T07:28:30;102398.75;;;-5.19;100.00
19210;BME280;9738;51.654;14.238;2022-12-18T07:30:55;102404.88;;;-5.39;100.00
19210;BME280;9738;51.654;14.238;2022-12-18T07:33:22;102408.34;;;-5.40;100.00
19210;BME280;9738;51.654;14.238;2022-12-18T07:35:48;102414.41;;;-5.43;100.00
19210;BME280;9738;51.654;14.238;2022-12-18T07:38:13;102417.88;;;-5.27;100.00
19210;BME280;9738;51.654;14.238;2022-12-18T07:40:40;102416.97;;;-5.16;100.00
19210;BME280;9738;51.654;14.238;2022-12-18T07:43:05;102427.38;;;-5.16;100.00
19210;BME280;9738;51.654;14.238;2022-12-18T07:45:31;102431.75;;;-5.27;100.00
19210;BME280;9738;51.654;14.238;2022-12-18T07:47:57;102425.69;;;-5.39;100.00
19210;BME280;9738;51.654;14.238;2022-12-18T07:50:23;102427.44;;;-5.45;100.00
19210;BME280;9738;51.654;14.238;2022-12-18T07:52:49;102423.09;;;-5.58;100.00
19210;BME280;9738;51.654;14.238;2022-12-18T07:55:15;102423.97;;;-5.51;100.00
19210;BME280;9738;51.654;14.238;2022-12-18T07:57:41;102425.69;;;-5.39;100.00
19210;BME280;9738;51.654;14.238;2022-12-18T08:00:07;102415.28;;;-5.39;100.00
19210;BME280;9738;51.654;14.238;2022-12-18T08:02:34;102423.94;;;-5.37;100.00
19210;BME280;9738;51.654;14.238;2022-12-18T08:05:00;102420.47;;;-5.44;100.00
19210;BME280;9738;51.654;14.238;2022-12-18T08:07:25;102421.38;;;-5.57;100.00
19210;BME280;9738;51.654;14.238;2022-12-18T08:09:52;102418.75;;;-5.74;100.00
19210;BME280;9738;51.654;14.238;2022-12-18T08:12:17;102414.44;;;-5.78;100.00
19210;BME280;9738;51.654;14.238;2022-12-18T08:14:43;102408.34;;;-5.83;100.00
19210;BME280;9738;51.654;14.238;2022-12-18T08:17:09;102410.09;;;-5.84;100.00
19210;BME280;9738;51.654;14.238;2022-12-18T08:19:35;102410.06;;;-5.61;100.00
19210;BME280;9738;51.654;14.238;2022-12-18T08:22:01;102412.66;;;-5.55;100.00
19210;BME280;9738;51.654;14.238;2022-12-18T08:24:27;102405.72;;;-5.50;100.00
19210;BME280;9738;51.654;14.238;2022-12-18T08:26:53;102401.38;;;-5.48;100.00
19210;BME280;9738;51.654;14.238;2022-12-18T08:29:19;102414.41;;;-5.48;100.00
19210;BME280;9738;51.654;14.238;2022-12-18T08:31:45;102408.34;;;-5.47;100.00
19210;BME280;9738;51.654;14.238;2022-12-18T08:34:11;102416.16;;;-5.51;100.00
19210;BME280;9738;51.654;14.238;2022-12-18T08:36:37;102410.06;;;-5.67;100.00
19210;BME280;9738;51.654;14.238;2022-12-18T08:39:03;102407.50;;;-5.72;100.00
19210;BME280;9738;51.654;14.238;2022-12-18T08:41:29;102417.88;;;-5.70;100.00
19210;BME280;9738;51.654;14.238;2022-12-18T08:43:55;102417.00;;;-5.60;100.00
19210;BME280;9738;51.654;14.238;2022-12-18T08:46:42;102422.22;;;-5.69;100.00
19210;BME280;9738;51.654;14.238;2022-12-18T08:49:09;102427.44;;;-5.66;100.00
19210;BME280;9738;51.654;14.238;2022-12-18T08:51:36;102426.56;;;-5.59;100.00
19210;BME280;9738;51.654;14.238;2022-12-18T08:54:04;102429.16;;;-5.62;100.00
19210;BME280;9738;51.654;14.238;2022-12-18T08:56:30;102424.84;;;-5.78;100.00
19210;BME280;9738;51.654;14.238;2022-12-18T08:58:56;102427.44;;;-5.77;100.00
19210;BME280;9738;51.654;14.238;2022-12-18T09:01:23;102416.13;;;-5.80;100.00
19210;BME280;9738;51.654;14.238;2022-12-18T09:03:49;102423.94;;;-5.73;100.00
19210;BME280;9738;51.654;14.238;2022-12-18T09:06:17;102436.97;;;-5.60;100.00
19210;BME280;9738;51.654;14.238;2022-12-18T09:08:44;102431.78;;;-5.59;100.00
19210;BME280;9738;51.654;14.238;2022-12-18T09:11:13;102436.13;;;-5.46;100.00
19210;BME280;9738;51.654;14.238;2022-12-18T09:13:39;102440.44;;;-5.48;100.00
19210;BME280;9738;51.654;14.238;2022-12-18T09:16:06;102440.44;;;-5.49;100.00
19210;BME280;9738;51.654;14.238;2022-12-18T09:18:32;102430.91;;;-5.64;100.00
19210;BME280;9738;51.654;14.238;2022-12-18T09:20:58;102433.53;;;-5.65;100.00
19210;BME280;9738;51.654;14.238;2022-12-18T09:23:24;102433.50;;;-5.67;100.00
19210;BME280;9738;51.654;14.238;2022-12-18T09:25:50;102428.31;;;-5.64;100.00
19210;BME280;9738;51.654;14.238;2022-12-18T09:28:17;102437.00;;;-5.47;100.00
19210;BME280;9738;51.654;14.238;2022-12-18T09:30:47;102441.28;;;-5.29;100.00
19210;BME280;9738;51.654;14.238;2022-12-18T09:33:14;102448.22;;;-5.23;100.00
19210;BME280;9738;51.654;14.238;2022-12-18T09:35:42;102452.59;;;-5.21;100.00
19210;BME280;9738;51.654;14.238;2022-12-18T09:38:19;102455.16;;;-5.22;100.00
19210;BME280;9738;51.654;14.238;2022-12-18T09:40:48;102448.25;;;-5.19;100.00
19210;BME280;9738;51.654;14.238;2022-12-18T09:43:20;102458.66;;;-5.35;100.00
19210;BME280;9738;51.654;14.238;2022-12-18T09:45:51;102469.06;;;-5.29;100.00
19210;BME280;9738;51.654;14.238;2022-12-18T09:48:25;102476.00;;;-5.22;100.00
19210;BME280;9738;51.654;14.238;2022-12-18T09:50:57;102471.69;;;-5.32;100.00
19210;BME280;9738;51.654;14.238;2022-12-18T09:53:26;102476.03;;;-5.40;100.00
19210;BME280;9738;51.654;14.238;2022-12-18T09:55:54;102483.84;;;-5.59;100.00
19210;BME280;9738;51.654;14.238;2022-12-18T09:58:41;102500.34;;;-5.51;100.00
19210;BME280;9738;51.654;14.238;2022-12-18T10:01:12;102488.16;;;-5.67;100.00
19210;BME280;9738;51.654;14.238;2022-12-18T10:03:40;102474.28;;;-5.72;100.00
19210;BME280;9738;51.654;14.238;2022-12-18T10:06:35;102475.13;;;-5.73;100.00
19210;BME280;9738;51.654;14.238;2022-12-18T10:09:20;102473.41;;;-5.71;100.00
19210;BME280;9738;51.654;14.238;2022-12-18T10:14:43;102450.84;;;-5.81;100.00
19210;BME280;9738;51.654;14.238;2022-12-18T10:17:34;102450.00;;;-5.59;100.00
19210;BME280;9738;51.654;14.238;2022-12-18T10:20:10;102445.63;;;-5.54;100.00
19210;BME280;9738;51.654;14.238;2022-12-18T10:28:17;102420.50;;;-5.53;100.00
19210;BME280;9738;51.654;14.238;2022-12-18T10:30:45;102420.47;;;-5.55;100.00
19210;BME280;9738;51.654;14.238;2022-12-18T10:33:17;102418.75;;;-5.71;100.00
19210;BME280;9738;51.654;14.238;2022-12-18T10:35:44;102416.16;;;-5.69;100.00
19210;BME280;9738;51.654;14.238;2022-12-18T10:41:04;102404.00;;;-5.55;100.00
19210;BME280;9738;51.654;14.238;2022-12-18T10:43:36;102394.47;;;-5.68;100.00
19210;BME280;9738;51.654;14.238;2022-12-18T10:48:39;102389.25;;;-5.39;100.00
19210;BME280;9738;51.654;14.238;2022-12-18T10:51:07;102392.63;;;-5.04;100.00
19210;BME280;9738;51.654;14.238;2022-12-18T10:53:35;102392.59;;;-4.95;100.00
19210;BME280;9738;51.654;14.238;2022-12-18T10:56:04;102396.78;;;-4.55;100.00
19210;BME280;9738;51.654;14.238;2022-12-18T10:58:33;102389.03;;;-4.68;100.00
19210;BME280;9738;51.654;14.238;2022-12-18T11:01:09;102385.44;;;-4.47;100.00
19210;BME280;9738;51.654;14.238;2022-12-18T11:03:42;102381.78;;;-4.15;100.00
19210;BME280;9738;51.654;14.238;2022-12-18T11:06:15;102380.69;;;-3.85;100.00
19210;BME280;9738;51.654;14.238;2022-12-18T11:08:46;102365.75;;;-3.68;100.00
19210;BME280;9738;51.654;14.238;2022-12-18T11:11:23;102361.19;;;-3.43;100.00
19210;BME280;9738;51.654;14.238;2022-12-18T11:14:16;102352.25;;;-3.23;100.00
19210;BME280;9738;51.654;14.238;2022-12-18T11:16:46;102360.97;;;-3.23;100.00
19210;BME280;9738;51.654;14.238;2022-12-18T11:21:46;102344.47;;;-3.28;100.00
19210;BME280;9738;51.654;14.238;2022-12-18T11:24:32;102337.69;;;-3.46;100.00
19210;BME280;9738;51.654;14.238;2022-12-18T11:27:02;102330.75;;;-3.50;100.00
19210;BME280;9738;51.654;14.238;2022-12-18T11:29:32;102331.53;;;-3.40;100.00
19210;BME280;9738;51.654;14.238;2022-12-18T11:32:31;102330.84;;;-3.56;100.00
19210;BME280;9738;51.654;14.238;2022-12-18T11:35:16;102338.47;;;-3.39;100.00
19210;BME280;9738;51.654;14.238;2022-12-18T11:37:48;102333.53;;;-3.67;100.00
19210;BME280;9738;51.654;14.238;2022-12-18T11:40:19;102336.00;;;-3.53;100.00
19210;BME280;9738;51.654;14.238;2022-12-18T11:43:14;102344.03;;;-3.76;100.00
19210;BME280;9738;51.654;14.238;2022-12-18T11:45:47;102339.88;;;-3.97;100.00
19210;BME280;9738;51.654;14.238;2022-12-18T11:48:22;102333.66;;;-3.82;100.00
19210;BME280;9738;51.654;14.238;2022-12-18T11:50:51;102333.69;;;-3.85;100.00
19210;BME280;9738;51.654;14.238;2022-12-18T11:53:19;102339.78;;;-3.82;100.00
19210;BME280;9738;51.654;14.238;2022-12-18T11:55:54;102337.84;;;-3.64;100.00
19210;BME280;9738;51.654;14.238;2022-12-18T12:07:02;102329.19;;;-3.66;100.00
19210;BME280;9738;51.654;14.238;2022-12-18T12:09:43;102341.94;;;-3.37;100.00
19210;BME280;9738;51.654;14.238;2022-12-18T12:15:27;102333.50;;;-3.65;100.00
19210;BME280;9738;51.654;14.238;2022-12-18T12:23:53;102348.41;;;-3.75;100.00
19210;BME280;9738;51.654;14.238;2022-12-18T12:26:33;102349.88;;;-3.46;100.00
19210;BME280;9738;51.654;14.238;2022-12-18T12:29:17;102362.06;;;-3.47;100.00
19210;BME280;9738;51.654;14.238;2022-12-18T12:32:03;102351.63;;;-3.50;100.00
19210;BME280;9738;51.654;14.238;2022-12-18T12:35:02;102344.56;;;-3.39;100.00
19210;BME280;9738;51.654;14.238;2022-12-18T12:38:06;102344.41;;;-3.25;100.00
19210;BME280;9738;51.654;14.238;2022-12-18T12:40:39;102341.69;;;-3.14;100.00
19210;BME280;9738;51.654;14.238;2022-12-18T12:43:28;102340.00;;;-3.17;100.00
19210;BME280;9738;51.654;14.238;2022-12-18T12:46:00;102338.34;;;-3.24;100.00
19210;BME280;9738;51.654;14.238;2022-12-18T12:51:06;102343.75;;;-3.42;100.00
19210;BME280;9738;51.654;14.238;2022-12-18T12:53:36;102344.75;;;-3.56;100.00
19210;BME280;9738;51.654;14.238;2022-12-18T12:56:04;102340.34;;;-3.52;100.00
19210;BME280;9738;51.654;14.238;2022-12-18T13:01:25;102359.56;;;-3.59;100.00
19210;BME280;9738;51.654;14.238;2022-12-18T13:04:21;102357.78;;;-3.53;100.00
19210;BME280;9738;51.654;14.238;2022-12-18T13:07:15;102356.81;;;-3.44;100.00
19210;BME280;9738;51.654;14.238;2022-12-18T13:12:55;102360.22;;;-3.36;100.00
19210;BME280;9738;51.654;14.238;2022-12-18T13:15:35;102357.69;;;-3.45;100.00
19210;BME280;9738;51.654;14.238;2022-12-18T13:18:15;102355.00;;;-3.36;100.00
19210;BME280;9738;51.654;14.238;2022-12-18T13:20:47;102351.41;;;-3.26;100.00
19210;BME280;9738;51.654;14.238;2022-12-18T13:26:27;102342.28;;;-3.71;100.00
19210;BME280;9738;51.654;14.238;2022-12-18T13:33:43;102340.59;;;-3.78;100.00
19210;BME280;9738;51.654;14.238;2022-12-18T13:41:41;102331.03;;;-3.77;100.00
19210;BME280;9738;51.654;14.238;2022-12-18T13:44:30;102332.84;;;-3.87;100.00
19210;BME280;9738;51.654;14.238;2022-12-18T13:46:58;102338.88;;;-3.81;100.00
19210;BME280;9738;51.654;14.238;2022-12-18T13:49:39;102344.00;;;-3.71;100.00
19210;BME280;9738;51.654;14.238;2022-12-18T13:52:18;102341.41;;;-3.68;100.00
19210;BME280;9738;51.654;14.238;2022-12-18T13:54:52;102357.84;;;-3.63;100.00
19210;BME280;9738;51.654;14.238;2022-12-18T13:57:27;102353.50;;;-3.61;100.00
19210;BME280;9738;51.654;14.238;2022-12-18T13:59:53;102350.84;;;-3.58;100.00
19210;BME280;9738;51.654;14.238;2022-12-18T14:02:23;102361.25;;;-3.52;100.00
19210;BME280;9738;51.654;14.238;2022-12-18T14:04:50;102359.47;;;-3.50;100.00
19210;BME280;9738;51.654;14.238;2022-12-18T14:07:18;102364.69;;;-3.50;100.00
19210;BME280;9738;51.654;14.238;2022-12-18T14:09:48;102361.22;;;-3.49;100.00
19210;BME280;9738;51.654;14.238;2022-12-18T14:12:26;102351.63;;;-3.50;100.00
19210;BME280;9738;51.654;14.238;2022-12-18T14:15:33;102362.09;;;-3.50;100.00
19210;BME280;9738;51.654;14.238;2022-12-18T14:20:41;102344.03;;;-3.76;100.00
19210;BME280;9738;51.654;14.238;2022-12-18T14:23:28;102342.53;;;-4.03;100.00
19210;BME280;9738;51.654;14.238;2022-12-18T14:25:55;102341.88;;;-4.29;100.00